sensor_id;sensor_type;location;lat;lon;timestamp;P1;durP1;ratioP1;P2;durP2;ratioP2
211;SDS011;16228;48.800;9.002;2022-09-21T00:00:30;7.07;;;5.67;;
211;SDS011;16228;48.800;9.002;2022-09-21T00:02:57;7.13;;;4.87;;
211;SDS011;16228;48.800;9.002;2022-09-21T00:05:24;6.63;;;5.47;;
211;SDS011;16228;48.800;9.002;2022-09-21T00:07:51;5.20;;;4.27;;
211;SDS011;16228;48.800;9.002;2022-09-21T00:10:19;7.77;;;4.80;;
211;SDS011;16228;48.800;9.002;2022-09-21T00:12:48;5.97;;;5.37;;
211;SDS011;16228;48.800;9.002;2022-09-21T00:15:15;8.10;;;5.50;;
211;SDS011;16228;48.800;9.002;2022-09-21T00:17:43;6.63;;;5.93;;
211;SDS011;16228;48.800;9.002;2022-09-21T00:20:10;7.70;;;5.97;;
211;SDS011;16228;48.800;9.002;2022-09-21T00:22:37;5.73;;;5.00;;
211;SDS011;16228;48.800;9.002;2022-09-21T00:25:05;7.60;;;6.07;;
211;SDS011;16228;48.800;9.002;2022-09-21T00:27:33;8.80;;;5.60;;
211;SDS011;16228;48.800;9.002;2022-09-21T00:30:02;5.83;;;5.27;;
211;SDS011;16228;48.800;9.002;2022-09-21T00:32:31;8.43;;;5.73;;
211;SDS011;16228;48.800;9.002;2022-09-21T00:34:59;5.63;;;5.03;;
211;SDS011;16228;48.800;9.002;2022-09-21T00:37:27;6.57;;;4.83;;
211;SDS011;16228;48.800;9.002;2022-09-21T00:39:57;6.90;;;5.03;;
211;SDS011;16228;48.800;9.002;2022-09-21T00:42:26;6.90;;;5.23;;
211;SDS011;16228;48.800;9.002;2022-09-21T00:44:54;8.57;;;5.10;;
211;SDS011;16228;48.800;9.002;2022-09-21T00:47:25;8.60;;;5.73;;
211;SDS011;16228;48.800;9.002;2022-09-21T00:49:56;6.80;;;5.17;;
211;SDS011;16228;48.800;9.002;2022-09-21T00:52:25;6.80;;;5.30;;
211;SDS011;16228;48.800;9.002;2022-09-21T00:54:56;6.70;;;5.57;;
211;SDS011;16228;48.800;9.002;2022-09-21T00:57:27;8.07;;;4.80;;
211;SDS011;16228;48.800;9.002;2022-09-21T00:59:57;5.13;;;4.27;;
211;SDS011;16228;48.800;9.002;2022-09-21T01:02:28;6.17;;;5.00;;
211;SDS011;16228;48.800;9.002;2022-09-21T01:04:55;5.93;;;5.30;;
211;SDS011;16228;48.800;9.002;2022-09-21T01:07:23;7.77;;;5.53;;
211;SDS011;16228;48.800;9.002;2022-09-21T01:09:54;9.50;;;5.03;;
211;SDS011;16228;48.800;9.002;2022-09-21T01:12:27;7.87;;;6.30;;
211;SDS011;16228;48.800;9.002;2022-09-21T01:15:15;5.33;;;4.43;;
211;SDS011;16228;48.800;9.002;2022-09-21T01:17:51;6.30;;;4.53;;
211;SDS011;16228;48.800;9.002;2022-09-21T01:20:40;6.47;;;4.40;;
211;SDS011;16228;48.800;9.002;2022-09-21T01:29:47;5.80;;;4.27;;
211;SDS011;16228;48.800;9.002;2022-09-21T01:32:18;5.40;;;4.57;;
211;SDS011;16228;48.800;9.002;2022-09-21T01:34:52;5.93;;;4.40;;
211;SDS011;16228;48.800;9.002;2022-09-21T01:37:25;6.27;;;4.77;;
211;SDS011;16228;48.800;9.002;2022-09-21T01:39:59;5.93;;;4.73;;
211;SDS011;16228;48.800;9.002;2022-09-21T01:42:29;5.10;;;4.57;;
211;SDS011;16228;48.800;9.002;2022-09-21T01:45:00;6.73;;;5.37;;
211;SDS011;16228;48.800;9.002;2022-09-21T01:47:31;5.50;;;4.80;;
211;SDS011;16228;48.800;9.002;2022-09-21T01:50:01;5.93;;;4.63;;
211;SDS011;16228;48.800;9.002;2022-09-21T01:52:32;6.83;;;5.97;;
211;SDS011;16228;48.800;9.002;2022-09-21T01:55:03;7.13;;;5.33;;
211;SDS011;16228;48.800;9.002;2022-09-21T01:57:37;7.23;;;4.77;;
211;SDS011;16228;48.800;9.002;2022-09-21T02:00:11;8.20;;;5.10;;
211;SDS011;16228;48.800;9.002;2022-09-21T02:02:41;6.93;;;5.37;;
211;SDS011;16228;48.800;9.002;2022-09-21T02:05:15;5.57;;;5.07;;
211;SDS011;16228;48.800;9.002;2022-09-21T02:07:45;5.97;;;4.80;;
211;SDS011;16228;48.800;9.002;2022-09-21T02:10:15;7.37;;;5.03;;
211;SDS011;16228;48.800;9.002;2022-09-21T02:12:45;6.47;;;4.77;;
211;SDS011;16228;48.800;9.002;2022-09-21T02:15:17;5.17;;;4.43;;
211;SDS011;16228;48.800;9.002;2022-09-21T02:17:52;6.13;;;5.53;;
211;SDS011;16228;48.800;9.002;2022-09-21T02:20:27;5.90;;;5.30;;
211;SDS011;16228;48.800;9.002;2022-09-21T02:22:59;5.30;;;4.70;;
211;SDS011;16228;48.800;9.002;2022-09-21T02:25:38;6.70;;;4.27;;
211;SDS011;16228;48.800;9.002;2022-09-21T02:28:13;5.80;;;4.40;;
211;SDS011;16228;48.800;9.002;2022-09-21T02:30:54;4.97;;;4.47;;
211;SDS011;16228;48.800;9.002;2022-09-21T02:33:27;9.53;;;5.00;;
211;SDS011;16228;48.800;9.002;2022-09-21T02:35:58;7.60;;;5.47;;
211;SDS011;16228;48.800;9.002;2022-09-21T02:38:33;5.20;;;4.70;;
211;SDS011;16228;48.800;9.002;2022-09-21T02:41:06;4.87;;;4.37;;
211;SDS011;16228;48.800;9.002;2022-09-21T02:43:40;4.70;;;4.30;;
211;SDS011;16228;48.800;9.002;2022-09-21T02:46:12;5.27;;;3.97;;
211;SDS011;16228;48.800;9.002;2022-09-21T02:48:44;5.57;;;4.97;;
211;SDS011;16228;48.800;9.002;2022-09-21T02:51:15;5.20;;;4.60;;
211;SDS011;16228;48.800;9.002;2022-09-21T02:53:43;5.77;;;4.83;;
211;SDS011;16228;48.800;9.002;2022-09-21T02:56:13;7.80;;;5.57;;
211;SDS011;16228;48.800;9.002;2022-09-21T02:58:42;8.73;;;5.00;;
211;SDS011;16228;48.800;9.002;2022-09-21T03:01:13;7.27;;;5.00;;
211;SDS011;16228;48.800;9.002;2022-09-21T03:03:41;5.47;;;4.97;;
211;SDS011;16228;48.800;9.002;2022-09-21T03:06:08;5.97;;;4.80;;
211;SDS011;16228;48.800;9.002;2022-09-21T03:08:36;8.00;;;5.50;;
211;SDS011;16228;48.800;9.002;2022-09-21T03:11:03;10.63;;;5.17;;
211;SDS011;16228;48.800;9.002;2022-09-21T03:13:30;8.20;;;5.67;;
211;SDS011;16228;48.800;9.002;2022-09-21T03:15:58;5.77;;;5.10;;
211;SDS011;16228;48.800;9.002;2022-09-21T03:18:27;5.37;;;4.87;;
211;SDS011;16228;48.800;9.002;2022-09-21T03:20:55;7.57;;;6.07;;
211;SDS011;16228;48.800;9.002;2022-09-21T03:23:21;6.83;;;5.10;;
211;SDS011;16228;48.800;9.002;2022-09-21T03:25:49;7.07;;;5.97;;
211;SDS011;16228;48.800;9.002;2022-09-21T03:28:17;7.03;;;5.93;;
211;SDS011;16228;48.800;9.002;2022-09-21T03:30:44;7.27;;;6.33;;
211;SDS011;16228;48.800;9.002;2022-09-21T03:33:13;7.57;;;6.57;;
211;SDS011;16228;48.800;9.002;2022-09-21T03:35:41;8.23;;;7.00;;
211;SDS011;16228;48.800;9.002;2022-09-21T03:38:08;10.80;;;7.70;;
211;SDS011;16228;48.800;9.002;2022-09-21T03:40:35;11.70;;;6.73;;
211;SDS011;16228;48.800;9.002;2022-09-21T03:43:02;6.67;;;5.97;;
211;SDS011;16228;48.800;9.002;2022-09-21T03:45:29;10.07;;;7.43;;
211;SDS011;16228;48.800;9.002;2022-09-21T03:47:57;7.00;;;5.93;;
211;SDS011;16228;48.800;9.002;2022-09-21T03:50:26;10.77;;;6.30;;
211;SDS011;16228;48.800;9.002;2022-09-21T03:52:55;9.20;;;5.97;;
211;SDS011;16228;48.800;9.002;2022-09-21T03:55:22;8.50;;;6.13;;
211;SDS011;16228;48.800;9.002;2022-09-21T03:57:50;8.10;;;6.53;;
211;SDS011;16228;48.800;9.002;2022-09-21T04:00:17;9.73;;;6.33;;
211;SDS011;16228;48.800;9.002;2022-09-21T04:02:44;7.07;;;5.80;;
211;SDS011;16228;48.800;9.002;2022-09-21T04:05:12;7.40;;;5.37;;
211;SDS011;16228;48.800;9.002;2022-09-21T04:07:41;8.80;;;6.30;;
211;SDS011;16228;48.800;9.002;2022-09-21T04:10:12;9.77;;;6.40;;
211;SDS011;16228;48.800;9.002;2022-09-21T04:12:40;9.37;;;5.90;;
211;SDS011;16228;48.800;9.002;2022-09-21T04:15:08;8.33;;;5.93;;
211;SDS011;16228;48.800;9.002;2022-09-21T04:17:36;8.63;;;6.30;;
211;SDS011;16228;48.800;9.002;2022-09-21T04:20:04;12.10;;;7.57;;
211;SDS011;16228;48.800;9.002;2022-09-21T04:22:32;7.17;;;6.07;;
211;SDS011;16228;48.800;9.002;2022-09-21T04:25:00;9.33;;;6.97;;
211;SDS011;16228;48.800;9.002;2022-09-21T04:27:29;9.20;;;6.77;;
211;SDS011;16228;48.800;9.002;2022-09-21T04:29:56;7.40;;;6.57;;
211;SDS011;16228;48.800;9.002;2022-09-21T04:32:23;8.33;;;6.57;;
211;SDS011;16228;48.800;9.002;2022-09-21T04:34:50;6.67;;;5.33;;
211;SDS011;16228;48.800;9.002;2022-09-21T04:37:17;7.87;;;5.90;;
211;SDS011;16228;48.800;9.002;2022-09-21T04:39:44;8.97;;;5.97;;
211;SDS011;16228;48.800;9.002;2022-09-21T04:42:11;9.03;;;6.73;;
211;SDS011;16228;48.800;9.002;2022-09-21T04:44:39;8.67;;;5.50;;
211;SDS011;16228;48.800;9.002;2022-09-21T04:47:06;6.50;;;5.57;;
211;SDS011;16228;48.800;9.002;2022-09-21T04:49:33;7.23;;;6.20;;
211;SDS011;16228;48.800;9.002;2022-09-21T04:52:00;8.07;;;5.87;;
211;SDS011;16228;48.800;9.002;2022-09-21T04:54:28;7.83;;;6.60;;
211;SDS011;16228;48.800;9.002;2022-09-21T04:56:55;8.03;;;5.70;;
211;SDS011;16228;48.800;9.002;2022-09-21T04:59:21;9.03;;;6.70;;
211;SDS011;16228;48.800;9.002;2022-09-21T05:01:50;7.03;;;5.77;;
211;SDS011;16228;48.800;9.002;2022-09-21T05:04:17;6.50;;;5.73;;
211;SDS011;16228;48.800;9.002;2022-09-21T05:06:44;7.70;;;5.60;;
211;SDS011;16228;48.800;9.002;2022-09-21T05:09:11;9.63;;;6.67;;
211;SDS011;16228;48.800;9.002;2022-09-21T05:11:55;6.30;;;5.50;;
211;SDS011;16228;48.800;9.002;2022-09-21T05:14:22;7.63;;;5.80;;
211;SDS011;16228;48.800;9.002;2022-09-21T05:16:51;7.07;;;5.43;;
211;SDS011;16228;48.800;9.002;2022-09-21T05:19:18;6.50;;;5.00;;
211;SDS011;16228;48.800;9.002;2022-09-21T05:21:45;7.23;;;5.70;;
211;SDS011;16228;48.800;9.002;2022-09-21T05:24:12;6.13;;;5.33;;
211;SDS011;16228;48.800;9.002;2022-09-21T05:26:39;6.00;;;5.40;;
211;SDS011;16228;48.800;9.002;2022-09-21T05:29:06;8.57;;;5.83;;
211;SDS011;16228;48.800;9.002;2022-09-21T05:31:40;8.23;;;5.57;;
211;SDS011;16228;48.800;9.002;2022-09-21T05:34:26;7.23;;;5.47;;
211;SDS011;16228;48.800;9.002;2022-09-21T05:37:03;8.13;;;6.03;;
211;SDS011;16228;48.800;9.002;2022-09-21T05:39:35;7.97;;;5.83;;
211;SDS011;16228;48.800;9.002;2022-09-21T05:42:03;7.50;;;5.47;;
211;SDS011;16228;48.800;9.002;2022-09-21T05:44:31;7.70;;;4.97;;
211;SDS011;16228;48.800;9.002;2022-09-21T05:47:00;8.33;;;6.57;;
211;SDS011;16228;48.800;9.002;2022-09-21T05:49:37;10.37;;;5.90;;
211;SDS011;16228;48.800;9.002;2022-09-21T05:52:15;6.67;;;5.53;;
211;SDS011;16228;48.800;9.002;2022-09-21T05:54:51;6.30;;;5.37;;
211;SDS011;16228;48.800;9.002;2022-09-21T05:57:27;9.83;;;6.47;;
211;SDS011;16228;48.800;9.002;2022-09-21T06:00:08;10.87;;;5.60;;
211;SDS011;16228;48.800;9.002;2022-09-21T06:02:43;6.33;;;5.50;;
211;SDS011;16228;48.800;9.002;2022-09-21T06:05:32;6.50;;;5.40;;
211;SDS011;16228;48.800;9.002;2022-09-21T06:07:59;10.00;;;6.60;;
211;SDS011;16228;48.800;9.002;2022-09-21T06:10:26;11.30;;;5.87;;
211;SDS011;16228;48.800;9.002;2022-09-21T06:12:58;10.53;;;6.57;;
211;SDS011;16228;48.800;9.002;2022-09-21T06:15:28;10.17;;;6.93;;
211;SDS011;16228;48.800;9.002;2022-09-21T06:17:56;10.50;;;6.60;;
211;SDS011;16228;48.800;9.002;2022-09-21T06:20:23;10.60;;;6.20;;
211;SDS011;16228;48.800;9.002;2022-09-21T06:22:52;10.10;;;6.00;;
211;SDS011;16228;48.800;9.002;2022-09-21T06:25:25;7.90;;;6.10;;
211;SDS011;16228;48.800;9.002;2022-09-21T06:27:52;7.70;;;6.77;;
211;SDS011;16228;48.800;9.002;2022-09-21T06:30:19;9.27;;;7.33;;
211;SDS011;16228;48.800;9.002;2022-09-21T06:32:48;9.23;;;6.23;;
211;SDS011;16228;48.800;9.002;2022-09-21T06:35:15;8.40;;;6.83;;
211;SDS011;16228;48.800;9.002;2022-09-21T06:37:42;8.27;;;6.83;;
211;SDS011;16228;48.800;9.002;2022-09-21T06:40:10;9.07;;;6.80;;
211;SDS011;16228;48.800;9.002;2022-09-21T06:42:37;10.70;;;7.03;;
211;SDS011;16228;48.800;9.002;2022-09-21T06:45:04;9.47;;;7.10;;
211;SDS011;16228;48.800;9.002;2022-09-21T06:47:33;9.67;;;8.33;;
211;SDS011;16228;48.800;9.002;2022-09-21T06:50:01;9.57;;;7.37;;
211;SDS011;16228;48.800;9.002;2022-09-21T06:52:29;11.23;;;7.17;;
211;SDS011;16228;48.800;9.002;2022-09-21T06:54:57;9.77;;;7.53;;
211;SDS011;16228;48.800;9.002;2022-09-21T06:57:26;11.77;;;7.73;;
211;SDS011;16228;48.800;9.002;2022-09-21T06:59:53;11.13;;;9.03;;
211;SDS011;16228;48.800;9.002;2022-09-21T07:02:21;11.47;;;7.73;;
211;SDS011;16228;48.800;9.002;2022-09-21T07:04:48;7.43;;;6.37;;
211;SDS011;16228;48.800;9.002;2022-09-21T07:07:15;8.93;;;6.40;;
211;SDS011;16228;48.800;9.002;2022-09-21T07:09:42;8.40;;;6.33;;
211;SDS011;16228;48.800;9.002;2022-09-21T07:12:09;10.70;;;7.07;;
211;SDS011;16228;48.800;9.002;2022-09-21T07:14:40;10.60;;;7.00;;
211;SDS011;16228;48.800;9.002;2022-09-21T07:17:08;10.07;;;6.67;;
211;SDS011;16228;48.800;9.002;2022-09-21T07:19:35;11.07;;;6.73;;
211;SDS011;16228;48.800;9.002;2022-09-21T07:22:02;10.63;;;7.37;;
211;SDS011;16228;48.800;9.002;2022-09-21T07:24:29;10.27;;;7.90;;
211;SDS011;16228;48.800;9.002;2022-09-21T07:26:56;12.83;;;9.33;;
211;SDS011;16228;48.800;9.002;2022-09-21T07:29:23;9.80;;;8.63;;
211;SDS011;16228;48.800;9.002;2022-09-21T07:31:51;12.10;;;8.43;;
211;SDS011;16228;48.800;9.002;2022-09-21T07:34:18;14.60;;;8.73;;
211;SDS011;16228;48.800;9.002;2022-09-21T07:36:45;10.23;;;8.13;;
211;SDS011;16228;48.800;9.002;2022-09-21T07:39:12;10.07;;;8.10;;
211;SDS011;16228;48.800;9.002;2022-09-21T07:41:39;11.03;;;7.77;;
211;SDS011;16228;48.800;9.002;2022-09-21T07:44:06;9.87;;;7.20;;
211;SDS011;16228;48.800;9.002;2022-09-21T07:46:33;9.83;;;8.00;;
211;SDS011;16228;48.800;9.002;2022-09-21T07:49:02;13.37;;;9.73;;
211;SDS011;16228;48.800;9.002;2022-09-21T07:51:30;9.20;;;6.83;;
211;SDS011;16228;48.800;9.002;2022-09-21T07:53:57;8.77;;;6.47;;
211;SDS011;16228;48.800;9.002;2022-09-21T07:56:24;9.67;;;6.33;;
211;SDS011;16228;48.800;9.002;2022-09-21T07:58:51;8.63;;;6.80;;
211;SDS011;16228;48.800;9.002;2022-09-21T08:01:32;11.13;;;6.37;;
211;SDS011;16228;48.800;9.002;2022-09-21T08:04:00;8.47;;;5.23;;
211;SDS011;16228;48.800;9.002;2022-09-21T08:06:30;9.63;;;6.13;;
211;SDS011;16228;48.800;9.002;2022-09-21T08:08:59;5.47;;;4.63;;
211;SDS011;16228;48.800;9.002;2022-09-21T08:11:27;6.80;;;4.97;;
211;SDS011;16228;48.800;9.002;2022-09-21T08:13:56;6.80;;;3.50;;
211;SDS011;16228;48.800;9.002;2022-09-21T08:16:25;3.37;;;3.07;;
211;SDS011;16228;48.800;9.002;2022-09-21T08:18:54;4.73;;;2.80;;
211;SDS011;16228;48.800;9.002;2022-09-21T08:21:23;5.03;;;2.77;;
211;SDS011;16228;48.800;9.002;2022-09-21T08:23:50;4.27;;;2.87;;
211;SDS011;16228;48.800;9.002;2022-09-21T08:26:17;5.43;;;2.67;;
211;SDS011;16228;48.800;9.002;2022-09-21T08:28:46;3.80;;;2.53;;
211;SDS011;16228;48.800;9.002;2022-09-21T08:31:16;3.97;;;2.60;;
211;SDS011;16228;48.800;9.002;2022-09-21T08:33:44;4.60;;;3.25;;
211;SDS011;16228;48.800;9.002;2022-09-21T08:36:12;4.65;;;2.88;;
211;SDS011;16228;48.800;9.002;2022-09-21T08:38:41;4.57;;;2.58;;
211;SDS011;16228;48.800;9.002;2022-09-21T08:41:12;5.47;;;2.80;;
211;SDS011;16228;48.800;9.002;2022-09-21T08:43:42;2.60;;;2.05;;
211;SDS011;16228;48.800;9.002;2022-09-21T08:46:12;2.67;;;2.30;;
211;SDS011;16228;48.800;9.002;2022-09-21T08:48:44;3.65;;;2.30;;
211;SDS011;16228;48.800;9.002;2022-09-21T08:51:14;3.40;;;2.13;;
211;SDS011;16228;48.800;9.002;2022-09-21T08:53:49;4.40;;;2.40;;
211;SDS011;16228;48.800;9.002;2022-09-21T08:56:19;3.05;;;2.30;;
211;SDS011;16228;48.800;9.002;2022-09-21T08:58:47;3.83;;;2.50;;
211;SDS011;16228;48.800;9.002;2022-09-21T09:01:27;4.35;;;2.42;;
211;SDS011;16228;48.800;9.002;2022-09-21T09:04:21;2.67;;;2.17;;
211;SDS011;16228;48.800;9.002;2022-09-21T09:07:00;2.92;;;2.30;;
211;SDS011;16228;48.800;9.002;2022-09-21T09:09:41;3.72;;;2.25;;
211;SDS011;16228;48.800;9.002;2022-09-21T09:12:28;3.92;;;2.47;;
211;SDS011;16228;48.800;9.002;2022-09-21T09:15:16;4.47;;;2.10;;
211;SDS011;16228;48.800;9.002;2022-09-21T09:17:57;3.03;;;1.70;;
211;SDS011;16228;48.800;9.002;2022-09-21T09:20:31;4.32;;;1.80;;
211;SDS011;16228;48.800;9.002;2022-09-21T09:23:05;3.38;;;1.80;;
211;SDS011;16228;48.800;9.002;2022-09-21T09:25:38;3.28;;;2.17;;
211;SDS011;16228;48.800;9.002;2022-09-21T09:28:22;3.25;;;2.03;;
211;SDS011;16228;48.800;9.002;2022-09-21T09:30:55;3.72;;;2.00;;
211;SDS011;16228;48.800;9.002;2022-09-21T09:33:26;3.33;;;1.85;;
211;SDS011;16228;48.800;9.002;2022-09-21T09:35:59;3.00;;;2.00;;
211;SDS011;16228;48.800;9.002;2022-09-21T09:38:30;1.65;;;1.40;;
211;SDS011;16228;48.800;9.002;2022-09-21T09:41:10;1.85;;;1.40;;
211;SDS011;16228;48.800;9.002;2022-09-21T09:43:56;2.15;;;1.50;;
211;SDS011;16228;48.800;9.002;2022-09-21T09:46:39;2.03;;;1.20;;
211;SDS011;16228;48.800;9.002;2022-09-21T09:49:18;1.75;;;0.90;;
211;SDS011;16228;48.800;9.002;2022-09-21T09:51:54;1.75;;;1.00;;
211;SDS011;16228;48.800;9.002;2022-09-21T09:54:21;1.48;;;1.00;;
211;SDS011;16228;48.800;9.002;2022-09-21T09:56:52;3.45;;;1.58;;
211;SDS011;16228;48.800;9.002;2022-09-21T09:59:22;2.17;;;1.20;;
211;SDS011;16228;48.800;9.002;2022-09-21T10:01:58;3.28;;;1.17;;
211;SDS011;16228;48.800;9.002;2022-09-21T10:04:27;2.10;;;1.15;;
211;SDS011;16228;48.800;9.002;2022-09-21T10:06:54;2.40;;;0.90;;
211;SDS011;16228;48.800;9.002;2022-09-21T10:09:23;1.88;;;1.05;;
211;SDS011;16228;48.800;9.002;2022-09-21T10:11:54;1.88;;;0.90;;
211;SDS011;16228;48.800;9.002;2022-09-21T10:14:23;2.63;;;1.27;;
211;SDS011;16228;48.800;9.002;2022-09-21T10:16:54;2.72;;;1.58;;
211;SDS011;16228;48.800;9.002;2022-09-21T10:19:23;2.97;;;1.25;;
211;SDS011;16228;48.800;9.002;2022-09-21T10:21:55;1.88;;;1.20;;
211;SDS011;16228;48.800;9.002;2022-09-21T10:24:23;1.92;;;1.35;;
211;SDS011;16228;48.800;9.002;2022-09-21T10:26:54;2.25;;;1.30;;
211;SDS011;16228;48.800;9.002;2022-09-21T10:29:28;2.13;;;1.20;;
211;SDS011;16228;48.800;9.002;2022-09-21T10:32:07;1.95;;;1.17;;
211;SDS011;16228;48.800;9.002;2022-09-21T10:34:59;1.42;;;0.80;;
211;SDS011;16228;48.800;9.002;2022-09-21T10:37:40;1.70;;;1.10;;
211;SDS011;16228;48.800;9.002;2022-09-21T10:40:21;2.67;;;1.02;;
211;SDS011;16228;48.800;9.002;2022-09-21T10:42:57;1.02;;;0.60;;
211;SDS011;16228;48.800;9.002;2022-09-21T10:45:26;1.00;;;0.70;;
211;SDS011;16228;48.800;9.002;2022-09-21T10:47:55;1.50;;;0.63;;
211;SDS011;16228;48.800;9.002;2022-09-21T10:50:28;1.23;;;0.60;;
211;SDS011;16228;48.800;9.002;2022-09-21T10:53:09;3.70;;;1.20;;
211;SDS011;16228;48.800;9.002;2022-09-21T10:55:39;1.17;;;0.70;;
211;SDS011;16228;48.800;9.002;2022-09-21T10:58:10;1.15;;;0.70;;
211;SDS011;16228;48.800;9.002;2022-09-21T11:00:40;1.55;;;0.85;;
211;SDS011;16228;48.800;9.002;2022-09-21T11:06:17;1.52;;;0.88;;
211;SDS011;16228;48.800;9.002;2022-09-21T11:08:50;2.55;;;1.00;;
211;SDS011;16228;48.800;9.002;2022-09-21T11:11:30;1.40;;;0.90;;
211;SDS011;16228;48.800;9.002;2022-09-21T11:14:09;2.78;;;1.10;;
211;SDS011;16228;48.800;9.002;2022-09-21T11:16:45;1.42;;;0.75;;
211;SDS011;16228;48.800;9.002;2022-09-21T11:19:18;2.95;;;0.90;;
211;SDS011;16228;48.800;9.002;2022-09-21T11:21:54;2.08;;;0.95;;
211;SDS011;16228;48.800;9.002;2022-09-21T11:24:36;1.77;;;1.00;;
211;SDS011;16228;48.800;9.002;2022-09-21T11:27:12;1.65;;;1.00;;
211;SDS011;16228;48.800;9.002;2022-09-21T11:29:46;1.38;;;1.10;;
211;SDS011;16228;48.800;9.002;2022-09-21T11:32:23;1.33;;;1.08;;
211;SDS011;16228;48.800;9.002;2022-09-21T11:35:08;1.05;;;0.85;;
211;SDS011;16228;48.800;9.002;2022-09-21T11:38:10;1.55;;;1.00;;
211;SDS011;16228;48.800;9.002;2022-09-21T11:40:49;0.95;;;0.80;;
211;SDS011;16228;48.800;9.002;2022-09-21T11:43:30;2.25;;;0.93;;
211;SDS011;16228;48.800;9.002;2022-09-21T11:46:14;1.45;;;0.65;;
211;SDS011;16228;48.800;9.002;2022-09-21T11:48:50;1.10;;;0.85;;
211;SDS011;16228;48.800;9.002;2022-09-21T11:51:41;1.42;;;1.05;;
211;SDS011;16228;48.800;9.002;2022-09-21T11:54:22;2.13;;;1.00;;
211;SDS011;16228;48.800;9.002;2022-09-21T11:57:09;1.77;;;0.93;;
211;SDS011;16228;48.800;9.002;2022-09-21T12:05:49;1.73;;;0.60;;
211;SDS011;16228;48.800;9.002;2022-09-21T12:08:34;1.40;;;0.90;;
211;SDS011;16228;48.800;9.002;2022-09-21T12:11:32;1.08;;;0.63;;
211;SDS011;16228;48.800;9.002;2022-09-21T12:14:07;0.60;;;0.60;;
211;SDS011;16228;48.800;9.002;2022-09-21T12:16:43;0.73;;;0.60;;
211;SDS011;16228;48.800;9.002;2022-09-21T12:19:17;1.35;;;0.80;;
211;SDS011;16228;48.800;9.002;2022-09-21T12:21:54;1.55;;;0.57;;
211;SDS011;16228;48.800;9.002;2022-09-21T12:24:28;1.38;;;0.70;;
211;SDS011;16228;48.800;9.002;2022-09-21T12:27:01;2.63;;;0.95;;
211;SDS011;16228;48.800;9.002;2022-09-21T12:29:34;1.08;;;0.68;;
211;SDS011;16228;48.800;9.002;2022-09-21T12:32:10;0.70;;;0.70;;
211;SDS011;16228;48.800;9.002;2022-09-21T12:34:45;1.17;;;0.73;;
211;SDS011;16228;48.800;9.002;2022-09-21T12:37:17;1.33;;;0.60;;
211;SDS011;16228;48.800;9.002;2022-09-21T12:39:48;0.52;;;0.50;;
211;SDS011;16228;48.800;9.002;2022-09-21T12:42:25;1.45;;;0.60;;
211;SDS011;16228;48.800;9.002;2022-09-21T12:44:57;1.45;;;0.65;;
211;SDS011;16228;48.800;9.002;2022-09-21T12:47:28;1.95;;;1.17;;
211;SDS011;16228;48.800;9.002;2022-09-21T12:52:55;0.90;;;0.60;;
211;SDS011;16228;48.800;9.002;2022-09-21T12:55:30;0.82;;;0.52;;
211;SDS011;16228;48.800;9.002;2022-09-21T12:58:12;0.85;;;0.60;;
211;SDS011;16228;48.800;9.002;2022-09-21T13:00:53;0.65;;;0.57;;
211;SDS011;16228;48.800;9.002;2022-09-21T13:03:27;1.10;;;0.50;;
211;SDS011;16228;48.800;9.002;2022-09-21T13:06:13;1.10;;;0.70;;
211;SDS011;16228;48.800;9.002;2022-09-21T13:08:58;1.47;;;0.60;;
211;SDS011;16228;48.800;9.002;2022-09-21T13:11:27;0.87;;;0.83;;
211;SDS011;16228;48.800;9.002;2022-09-21T13:13:56;3.73;;;0.73;;
211;SDS011;16228;48.800;9.002;2022-09-21T13:16:26;1.13;;;0.50;;
211;SDS011;16228;48.800;9.002;2022-09-21T13:18:57;0.90;;;0.60;;
211;SDS011;16228;48.800;9.002;2022-09-21T13:21:26;1.03;;;0.50;;
211;SDS011;16228;48.800;9.002;2022-09-21T13:23:56;0.90;;;0.50;;
211;SDS011;16228;48.800;9.002;2022-09-21T13:26:36;1.30;;;0.60;;
211;SDS011;16228;48.800;9.002;2022-09-21T13:31:59;1.03;;;0.70;;
211;SDS011;16228;48.800;9.002;2022-09-21T13:34:29;1.07;;;0.67;;
211;SDS011;16228;48.800;9.002;2022-09-21T13:43:17;1.30;;;0.70;;
211;SDS011;16228;48.800;9.002;2022-09-21T13:45:55;0.67;;;0.53;;
211;SDS011;16228;48.800;9.002;2022-09-21T13:48:25;1.33;;;0.60;;
211;SDS011;16228;48.800;9.002;2022-09-21T13:50:55;1.80;;;0.60;;
211;SDS011;16228;48.800;9.002;2022-09-21T13:53:26;0.73;;;0.50;;
211;SDS011;16228;48.800;9.002;2022-09-21T13:56:00;1.73;;;0.60;;
211;SDS011;16228;48.800;9.002;2022-09-21T13:58:35;1.20;;;0.70;;
211;SDS011;16228;48.800;9.002;2022-09-21T14:01:12;1.23;;;0.70;;
211;SDS011;16228;48.800;9.002;2022-09-21T14:03:42;1.50;;;0.70;;
211;SDS011;16228;48.800;9.002;2022-09-21T14:06:13;1.80;;;0.63;;
211;SDS011;16228;48.800;9.002;2022-09-21T14:08:48;1.00;;;0.60;;
211;SDS011;16228;48.800;9.002;2022-09-21T14:11:20;2.73;;;0.70;;
211;SDS011;16228;48.800;9.002;2022-09-21T14:14:02;1.00;;;0.53;;
211;SDS011;16228;48.800;9.002;2022-09-21T14:16:49;1.03;;;0.50;;
211;SDS011;16228;48.800;9.002;2022-09-21T14:22:33;0.60;;;0.57;;
211;SDS011;16228;48.800;9.002;2022-09-21T14:28:01;2.00;;;0.70;;
211;SDS011;16228;48.800;9.002;2022-09-21T14:30:33;0.97;;;0.67;;
211;SDS011;16228;48.800;9.002;2022-09-21T14:33:15;0.90;;;0.60;;
211;SDS011;16228;48.800;9.002;2022-09-21T14:36:06;1.07;;;0.70;;
211;SDS011;16228;48.800;9.002;2022-09-21T14:38:38;0.87;;;0.70;;
211;SDS011;16228;48.800;9.002;2022-09-21T14:41:14;0.83;;;0.63;;
211;SDS011;16228;48.800;9.002;2022-09-21T14:43:47;1.50;;;0.50;;
211;SDS011;16228;48.800;9.002;2022-09-21T14:46:27;1.30;;;0.60;;
211;SDS011;16228;48.800;9.002;2022-09-21T14:49:09;6.03;;;4.70;;
211;SDS011;16228;48.800;9.002;2022-09-21T14:51:47;0.70;;;0.70;;
211;SDS011;16228;48.800;9.002;2022-09-21T14:54:32;1.10;;;0.63;;
211;SDS011;16228;48.800;9.002;2022-09-21T14:57:13;1.07;;;0.60;;
211;SDS011;16228;48.800;9.002;2022-09-21T15:00:07;0.70;;;0.60;;
211;SDS011;16228;48.800;9.002;2022-09-21T15:05:43;1.47;;;0.80;;
211;SDS011;16228;48.800;9.002;2022-09-21T15:08:25;0.80;;;0.80;;
211;SDS011;16228;48.800;9.002;2022-09-21T15:11:25;0.80;;;0.60;;
211;SDS011;16228;48.800;9.002;2022-09-21T15:14:12;1.00;;;0.60;;
211;SDS011;16228;48.800;9.002;2022-09-21T15:16:47;0.97;;;0.60;;
211;SDS011;16228;48.800;9.002;2022-09-21T15:19:27;0.60;;;0.60;;
211;SDS011;16228;48.800;9.002;2022-09-21T15:21:56;0.83;;;0.70;;
211;SDS011;16228;48.800;9.002;2022-09-21T15:24:47;0.70;;;0.60;;
211;SDS011;16228;48.800;9.002;2022-09-21T15:27:16;1.40;;;0.80;;
211;SDS011;16228;48.800;9.002;2022-09-21T15:29:45;1.83;;;1.13;;
211;SDS011;16228;48.800;9.002;2022-09-21T15:32:17;1.00;;;0.50;;
211;SDS011;16228;48.800;9.002;2022-09-21T15:34:58;0.93;;;0.50;;
211;SDS011;16228;48.800;9.002;2022-09-21T15:37:26;0.70;;;0.70;;
211;SDS011;16228;48.800;9.002;2022-09-21T15:39:58;0.63;;;0.63;;
211;SDS011;16228;48.800;9.002;2022-09-21T15:42:26;2.23;;;0.83;;
211;SDS011;16228;48.800;9.002;2022-09-21T15:45:00;2.40;;;0.83;;
211;SDS011;16228;48.800;9.002;2022-09-21T15:47:38;0.57;;;0.57;;
211;SDS011;16228;48.800;9.002;2022-09-21T15:50:11;1.20;;;0.50;;
211;SDS011;16228;48.800;9.002;2022-09-21T15:52:40;0.90;;;0.70;;
211;SDS011;16228;48.800;9.002;2022-09-21T15:55:13;1.00;;;0.87;;
211;SDS011;16228;48.800;9.002;2022-09-21T15:57:46;1.40;;;0.70;;
211;SDS011;16228;48.800;9.002;2022-09-21T16:00:19;0.70;;;0.60;;
211;SDS011;16228;48.800;9.002;2022-09-21T16:02:54;1.90;;;1.00;;
211;SDS011;16228;48.800;9.002;2022-09-21T16:05:40;2.10;;;0.80;;
211;SDS011;16228;48.800;9.002;2022-09-21T16:08:17;1.03;;;0.60;;
211;SDS011;16228;48.800;9.002;2022-09-21T16:10:51;1.00;;;0.83;;
211;SDS011;16228;48.800;9.002;2022-09-21T16:13:19;1.13;;;0.80;;
211;SDS011;16228;48.800;9.002;2022-09-21T16:16:07;0.57;;;0.57;;
211;SDS011;16228;48.800;9.002;2022-09-21T16:18:41;1.70;;;0.57;;
211;SDS011;16228;48.800;9.002;2022-09-21T16:21:23;1.00;;;0.60;;
211;SDS011;16228;48.800;9.002;2022-09-21T16:23:53;1.37;;;0.60;;